sensor_id;sensor_type;location;lat;lon;timestamp;P1;durP1;ratioP1;P2;durP2;ratioP2
78750;SDS011;68070;50.954;11.060;2023-12-20T00:04:30;0.50;;;0.40;;
78750;SDS011;68070;50.954;11.060;2023-12-20T00:06:55;0.40;;;0.30;;
78750;SDS011;68070;50.954;11.060;2023-12-20T00:09:20;0.30;;;0.30;;
78750;SDS011;68070;50.954;11.060;2023-12-20T00:11:45;0.30;;;0.20;;
78750;SDS011;68070;50.954;11.060;2023-12-20T00:14:11;0.20;;;0.20;;
78750;SDS011;68070;50.954;11.060;2023-12-20T00:19:01;0.30;;;0.30;;
78750;SDS011;68070;50.954;11.060;2023-12-20T00:23:52;0.00;;;0.00;;
78750;SDS011;68070;50.954;11.060;2023-12-20T00:26:17;0.30;;;0.30;;
78750;SDS011;68070;50.954;11.060;2023-12-20T00:28:43;0.10;;;0.10;;
78750;SDS011;68070;50.954;11.060;2023-12-20T00:31:08;0.00;;;0.00;;
78750;SDS011;68070;50.954;11.060;2023-12-20T00:33:33;0.00;;;0.00;;
78750;SDS011;68070;50.954;11.060;2023-12-20T00:35:58;0.30;;;0.30;;
78750;SDS011;68070;50.954;11.060;2023-12-20T00:38:24;0.80;;;0.40;;
78750;SDS011;68070;50.954;11.060;2023-12-20T00:43:15;0.20;;;0.10;;
78750;SDS011;68070;50.954;11.060;2023-12-20T00:45:40;0.40;;;0.20;;
78750;SDS011;68070;50.954;11.060;2023-12-20T00:50:31;0.00;;;0.00;;
78750;SDS011;68070;50.954;11.060;2023-12-20T00:55:22;0.30;;;0.20;;
78750;SDS011;68070;50.954;11.060;2023-12-20T00:57:47;0.40;;;0.30;;
78750;SDS011;68070;50.954;11.060;2023-12-20T01:02:38;0.10;;;0.00;;
78750;SDS011;68070;50.954;11.060;2023-12-20T01:05:04;0.20;;;0.10;;
78750;SDS011;68070;50.954;11.060;2023-12-20T01:07:29;0.20;;;0.20;;
78750;SDS011;68070;50.954;11.060;2023-12-20T01:09:55;0.40;;;0.20;;
78750;SDS011;68070;50.954;11.060;2023-12-20T01:14:45;1.20;;;0.40;;
78750;SDS011;68070;50.954;11.060;2023-12-20T01:17:11;0.60;;;0.30;;
78750;SDS011;68070;50.954;11.060;2023-12-20T01:19:37;0.30;;;0.30;;
78750;SDS011;68070;50.954;11.060;2023-12-20T01:22:02;0.50;;;0.20;;
78750;SDS011;68070;50.954;11.060;2023-12-20T01:24:28;0.10;;;0.00;;
78750;SDS011;68070;50.954;11.060;2023-12-20T01:26:54;0.50;;;0.30;;
78750;SDS011;68070;50.954;11.060;2023-12-20T01:31:44;0.50;;;0.30;;
78750;SDS011;68070;50.954;11.060;2023-12-20T01:34:09;0.40;;;0.20;;
78750;SDS011;68070;50.954;11.060;2023-12-20T01:39:01;0.30;;;0.30;;
78750;SDS011;68070;50.954;11.060;2023-12-20T01:41:26;0.10;;;0.10;;
78750;SDS011;68070;50.954;11.060;2023-12-20T01:43:51;0.30;;;0.30;;
78750;SDS011;68070;50.954;11.060;2023-12-20T01:46:18;0.00;;;0.00;;
78750;SDS011;68070;50.954;11.060;2023-12-20T01:48:45;0.40;;;0.20;;
78750;SDS011;68070;50.954;11.060;2023-12-20T01:51:12;0.60;;;0.40;;
78750;SDS011;68070;50.954;11.060;2023-12-20T01:53:38;0.30;;;0.30;;
78750;SDS011;68070;50.954;11.060;2023-12-20T01:56:05;0.20;;;0.20;;
78750;SDS011;68070;50.954;11.060;2023-12-20T01:58:31;0.00;;;0.00;;
78750;SDS011;68070;50.954;11.060;2023-12-20T02:00:56;0.80;;;0.60;;
78750;SDS011;68070;50.954;11.060;2023-12-20T02:03:22;0.30;;;0.10;;
78750;SDS011;68070;50.954;11.060;2023-12-20T02:05:48;1.00;;;0.10;;
78750;SDS011;68070;50.954;11.060;2023-12-20T02:08:13;0.70;;;0.50;;
78750;SDS011;68070;50.954;11.060;2023-12-20T02:13:05;0.20;;;0.20;;
78750;SDS011;68070;50.954;11.060;2023-12-20T02:17:56;0.30;;;0.30;;
78750;SDS011;68070;50.954;11.060;2023-12-20T02:20:21;0.10;;;0.10;;
78750;SDS011;68070;50.954;11.060;2023-12-20T02:22:46;0.30;;;0.30;;
78750;SDS011;68070;50.954;11.060;2023-12-20T02:25:12;0.30;;;0.30;;
78750;SDS011;68070;50.954;11.060;2023-12-20T02:30:03;0.20;;;0.20;;
78750;SDS011;68070;50.954;11.060;2023-12-20T02:32:29;0.20;;;0.20;;
78750;SDS011;68070;50.954;11.060;2023-12-20T02:34:55;0.20;;;0.10;;
78750;SDS011;68070;50.954;11.060;2023-12-20T02:37:20;0.40;;;0.20;;
78750;SDS011;68070;50.954;11.060;2023-12-20T02:39:46;0.30;;;0.30;;
78750;SDS011;68070;50.954;11.060;2023-12-20T02:44:36;0.10;;;0.10;;
78750;SDS011;68070;50.954;11.060;2023-12-20T02:49:27;1.30;;;0.40;;
78750;SDS011;68070;50.954;11.060;2023-12-20T02:54:18;0.00;;;0.00;;
78750;SDS011;68070;50.954;11.060;2023-12-20T02:56:43;0.20;;;0.10;;
78750;SDS011;68070;50.954;11.060;2023-12-20T02:59:09;0.60;;;0.30;;
78750;SDS011;68070;50.954;11.060;2023-12-20T03:01:34;0.10;;;0.10;;
78750;SDS011;68070;50.954;11.060;2023-12-20T03:04:00;0.20;;;0.20;;
78750;SDS011;68070;50.954;11.060;2023-12-20T03:06:26;0.20;;;0.20;;
78750;SDS011;68070;50.954;11.060;2023-12-20T03:08:51;0.50;;;0.50;;
78750;SDS011;68070;50.954;11.060;2023-12-20T03:11:17;0.20;;;0.20;;
78750;SDS011;68070;50.954;11.060;2023-12-20T03:16:08;0.40;;;0.40;;
78750;SDS011;68070;50.954;11.060;2023-12-20T03:18:34;0.10;;;0.10;;
78750;SDS011;68070;50.954;11.060;2023-12-20T03:20:59;0.30;;;0.30;;
78750;SDS011;68070;50.954;11.060;2023-12-20T03:23:24;0.10;;;0.10;;
78750;SDS011;68070;50.954;11.060;2023-12-20T03:25:51;0.90;;;0.50;;
78750;SDS011;68070;50.954;11.060;2023-12-20T03:28:17;0.10;;;0.10;;
78750;SDS011;68070;50.954;11.060;2023-12-20T03:33:07;0.20;;;0.20;;
78750;SDS011;68070;50.954;11.060;2023-12-20T03:35:33;0.30;;;0.30;;
78750;SDS011;68070;50.954;11.060;2023-12-20T03:37:58;0.40;;;0.30;;
78750;SDS011;68070;50.954;11.060;2023-12-20T03:40:25;0.10;;;0.00;;
78750;SDS011;68070;50.954;11.060;2023-12-20T03:42:50;0.40;;;0.30;;
78750;SDS011;68070;50.954;11.060;2023-12-20T03:45:15;0.30;;;0.30;;
78750;SDS011;68070;50.954;11.060;2023-12-20T03:47:40;0.20;;;0.20;;
78750;SDS011;68070;50.954;11.060;2023-12-20T03:52:31;0.30;;;0.20;;
78750;SDS011;68070;50.954;11.060;2023-12-20T03:54:57;0.60;;;0.40;;
78750;SDS011;68070;50.954;11.060;2023-12-20T03:57:22;0.40;;;0.40;;
78750;SDS011;68070;50.954;11.060;2023-12-20T03:59:48;0.30;;;0.10;;
78750;SDS011;68070;50.954;11.060;2023-12-20T04:02:14;0.50;;;0.20;;
78750;SDS011;68070;50.954;11.060;2023-12-20T04:07:04;0.00;;;0.00;;
78750;SDS011;68070;50.954;11.060;2023-12-20T04:09:29;0.40;;;0.40;;
78750;SDS011;68070;50.954;11.060;2023-12-20T04:11:55;0.30;;;0.20;;
78750;SDS011;68070;50.954;11.060;2023-12-20T04:16:45;0.90;;;0.30;;
78750;SDS011;68070;50.954;11.060;2023-12-20T04:19:10;0.10;;;0.10;;
78750;SDS011;68070;50.954;11.060;2023-12-20T04:21:36;1.00;;;0.20;;
78750;SDS011;68070;50.954;11.060;2023-12-20T04:24:01;0.60;;;0.40;;
78750;SDS011;68070;50.954;11.060;2023-12-20T04:28:51;0.80;;;0.50;;
78750;SDS011;68070;50.954;11.060;2023-12-20T04:33:42;0.30;;;0.30;;
78750;SDS011;68070;50.954;11.060;2023-12-20T04:38:34;0.70;;;0.50;;
78750;SDS011;68070;50.954;11.060;2023-12-20T04:43:24;0.30;;;0.30;;
78750;SDS011;68070;50.954;11.060;2023-12-20T04:48:15;0.80;;;0.40;;
78750;SDS011;68070;50.954;11.060;2023-12-20T04:50:40;1.40;;;0.90;;
78750;SDS011;68070;50.954;11.060;2023-12-20T04:53:06;1.30;;;0.80;;
78750;SDS011;68070;50.954;11.060;2023-12-20T04:57:56;0.50;;;0.50;;
78750;SDS011;68070;50.954;11.060;2023-12-20T05:00:22;0.80;;;0.80;;
78750;SDS011;68070;50.954;11.060;2023-12-20T05:02:47;1.30;;;1.10;;
78750;SDS011;68070;50.954;11.060;2023-12-20T05:05:12;1.80;;;1.20;;
78750;SDS011;68070;50.954;11.060;2023-12-20T05:07:40;3.00;;;1.50;;
78750;SDS011;68070;50.954;11.060;2023-12-20T05:10:05;1.40;;;1.00;;
78750;SDS011;68070;50.954;11.060;2023-12-20T05:12:33;3.10;;;1.40;;
78750;SDS011;68070;50.954;11.060;2023-12-20T05:14:58;2.50;;;1.40;;
78750;SDS011;68070;50.954;11.060;2023-12-20T05:17:24;1.80;;;1.20;;
78750;SDS011;68070;50.954;11.060;2023-12-20T05:22:15;1.80;;;1.40;;
78750;SDS011;68070;50.954;11.060;2023-12-20T05:27:06;2.60;;;1.40;;
78750;SDS011;68070;50.954;11.060;2023-12-20T05:31:58;2.00;;;1.50;;
78750;SDS011;68070;50.954;11.060;2023-12-20T05:34:23;2.00;;;1.40;;
78750;SDS011;68070;50.954;11.060;2023-12-20T05:36:49;2.90;;;1.90;;
78750;SDS011;68070;50.954;11.060;2023-12-20T05:39:14;1.90;;;1.40;;
78750;SDS011;68070;50.954;11.060;2023-12-20T05:41:39;6.10;;;1.80;;
78750;SDS011;68070;50.954;11.060;2023-12-20T05:44:05;1.70;;;1.20;;
78750;SDS011;68070;50.954;11.060;2023-12-20T05:48:55;2.10;;;1.30;;
78750;SDS011;68070;50.954;11.060;2023-12-20T05:53:46;2.80;;;1.00;;
78750;SDS011;68070;50.954;11.060;2023-12-20T05:58:38;1.60;;;1.10;;
78750;SDS011;68070;50.954;11.060;2023-12-20T06:01:04;1.90;;;1.30;;
78750;SDS011;68070;50.954;11.060;2023-12-20T06:03:30;1.60;;;1.20;;
78750;SDS011;68070;50.954;11.060;2023-12-20T06:08:20;2.20;;;1.50;;
78750;SDS011;68070;50.954;11.060;2023-12-20T06:13:11;3.30;;;1.80;;
78750;SDS011;68070;50.954;11.060;2023-12-20T06:15:38;2.70;;;1.70;;
78750;SDS011;68070;50.954;11.060;2023-12-20T06:18:03;3.70;;;2.20;;
78750;SDS011;68070;50.954;11.060;2023-12-20T06:20:29;2.20;;;1.60;;
78750;SDS011;68070;50.954;11.060;2023-12-20T06:25:19;3.30;;;1.80;;
78750;SDS011;68070;50.954;11.060;2023-12-20T06:27:44;3.10;;;1.60;;
78750;SDS011;68070;50.954;11.060;2023-12-20T06:32:35;2.10;;;1.50;;
78750;SDS011;68070;50.954;11.060;2023-12-20T06:35:00;2.20;;;1.50;;
78750;SDS011;68070;50.954;11.060;2023-12-20T06:37:26;4.00;;;2.00;;
78750;SDS011;68070;50.954;11.060;2023-12-20T06:42:16;2.30;;;1.70;;
78750;SDS011;68070;50.954;11.060;2023-12-20T06:44:42;2.40;;;1.60;;
78750;SDS011;68070;50.954;11.060;2023-12-20T06:47:07;2.70;;;1.70;;
78750;SDS011;68070;50.954;11.060;2023-12-20T06:49:32;2.70;;;1.90;;
78750;SDS011;68070;50.954;11.060;2023-12-20T06:54:23;3.60;;;1.80;;
78750;SDS011;68070;50.954;11.060;2023-12-20T06:56:48;4.10;;;1.90;;
78750;SDS011;68070;50.954;11.060;2023-12-20T06:59:14;3.50;;;1.90;;
78750;SDS011;68070;50.954;11.060;2023-12-20T07:04:04;5.00;;;2.10;;
78750;SDS011;68070;50.954;11.060;2023-12-20T07:06:29;5.10;;;2.50;;
78750;SDS011;68070;50.954;11.060;2023-12-20T07:08:54;4.30;;;2.40;;
78750;SDS011;68070;50.954;11.060;2023-12-20T07:11:20;5.10;;;2.50;;
78750;SDS011;68070;50.954;11.060;2023-12-20T07:13:45;3.90;;;2.30;;
78750;SDS011;68070;50.954;11.060;2023-12-20T07:16:10;3.60;;;2.00;;
78750;SDS011;68070;50.954;11.060;2023-12-20T07:18:36;4.80;;;2.00;;
78750;SDS011;68070;50.954;11.060;2023-12-20T07:21:01;3.70;;;2.50;;
78750;SDS011;68070;50.954;11.060;2023-12-20T07:25:52;3.00;;;1.80;;
78750;SDS011;68070;50.954;11.060;2023-12-20T07:28:17;2.90;;;1.90;;
78750;SDS011;68070;50.954;11.060;2023-12-20T07:30:42;4.10;;;2.40;;
78750;SDS011;68070;50.954;11.060;2023-12-20T07:35:34;3.50;;;2.30;;
78750;SDS011;68070;50.954;11.060;2023-12-20T07:40:25;3.40;;;2.30;;
78750;SDS011;68070;50.954;11.060;2023-12-20T07:45:15;2.90;;;2.00;;
78750;SDS011;68070;50.954;11.060;2023-12-20T07:47:41;3.40;;;2.20;;
78750;SDS011;68070;50.954;11.060;2023-12-20T07:50:07;5.50;;;2.20;;
78750;SDS011;68070;50.954;11.060;2023-12-20T07:52:32;4.70;;;1.80;;
78750;SDS011;68070;50.954;11.060;2023-12-20T07:57:23;6.40;;;2.50;;
78750;SDS011;68070;50.954;11.060;2023-12-20T07:59:48;2.60;;;1.50;;
78750;SDS011;68070;50.954;11.060;2023-12-20T08:02:14;4.30;;;1.90;;
78750;SDS011;68070;50.954;11.060;2023-12-20T08:04:39;3.30;;;2.20;;
78750;SDS011;68070;50.954;11.060;2023-12-20T08:07:06;4.20;;;2.10;;
78750;SDS011;68070;50.954;11.060;2023-12-20T08:09:31;5.80;;;2.40;;
78750;SDS011;68070;50.954;11.060;2023-12-20T08:11:58;5.30;;;2.50;;
78750;SDS011;68070;50.954;11.060;2023-12-20T08:14:25;3.50;;;2.60;;
78750;SDS011;68070;50.954;11.060;2023-12-20T08:16:50;2.60;;;1.90;;
78750;SDS011;68070;50.954;11.060;2023-12-20T08:19:15;4.90;;;2.30;;
78750;SDS011;68070;50.954;11.060;2023-12-20T08:21:41;3.70;;;2.10;;
78750;SDS011;68070;50.954;11.060;2023-12-20T08:26:32;5.40;;;2.40;;
78750;SDS011;68070;50.954;11.060;2023-12-20T08:28:57;3.20;;;2.30;;
78750;SDS011;68070;50.954;11.060;2023-12-20T08:31:23;4.60;;;2.30;;
78750;SDS011;68070;50.954;11.060;2023-12-20T08:33:48;5.60;;;2.40;;
78750;SDS011;68070;50.954;11.060;2023-12-20T08:36:14;5.20;;;2.20;;
78750;SDS011;68070;50.954;11.060;2023-12-20T08:38:40;3.00;;;2.20;;
78750;SDS011;68070;50.954;11.060;2023-12-20T08:41:06;6.30;;;2.10;;
78750;SDS011;68070;50.954;11.060;2023-12-20T08:43:32;4.80;;;2.40;;
78750;SDS011;68070;50.954;11.060;2023-12-20T08:48:22;3.90;;;2.30;;
78750;SDS011;68070;50.954;11.060;2023-12-20T08:50:48;3.90;;;1.90;;
78750;SDS011;68070;50.954;11.060;2023-12-20T08:53:15;4.40;;;1.90;;
78750;SDS011;68070;50.954;11.060;2023-12-20T08:55:41;5.80;;;2.00;;
78750;SDS011;68070;50.954;11.060;2023-12-20T08:58:07;4.20;;;1.90;;
78750;SDS011;68070;50.954;11.060;2023-12-20T09:00:33;5.30;;;3.00;;
78750;SDS011;68070;50.954;11.060;2023-12-20T09:02:59;4.50;;;1.80;;
78750;SDS011;68070;50.954;11.060;2023-12-20T09:05:25;3.90;;;1.90;;
78750;SDS011;68070;50.954;11.060;2023-12-20T09:07:50;5.50;;;1.50;;
78750;SDS011;68070;50.954;11.060;2023-12-20T09:10:15;3.20;;;1.30;;
78750;SDS011;68070;50.954;11.060;2023-12-20T09:12:41;3.20;;;1.40;;
78750;SDS011;68070;50.954;11.060;2023-12-20T09:15:07;5.50;;;1.70;;
78750;SDS011;68070;50.954;11.060;2023-12-20T09:17:33;3.50;;;1.70;;
78750;SDS011;68070;50.954;11.060;2023-12-20T09:19:58;3.50;;;1.80;;
78750;SDS011;68070;50.954;11.060;2023-12-20T09:22:25;3.50;;;1.10;;
78750;SDS011;68070;50.954;11.060;2023-12-20T09:24:50;4.90;;;1.40;;
78750;SDS011;68070;50.954;11.060;2023-12-20T09:27:16;4.30;;;1.70;;
78750;SDS011;68070;50.954;11.060;2023-12-20T09:29:41;2.60;;;1.30;;
78750;SDS011;68070;50.954;11.060;2023-12-20T09:32:06;2.70;;;1.60;;
78750;SDS011;68070;50.954;11.060;2023-12-20T09:34:33;3.90;;;1.50;;
78750;SDS011;68070;50.954;11.060;2023-12-20T09:36:58;3.90;;;1.40;;
78750;SDS011;68070;50.954;11.060;2023-12-20T09:39:23;2.60;;;2.00;;
78750;SDS011;68070;50.954;11.060;2023-12-20T09:41:51;6.30;;;1.70;;
78750;SDS011;68070;50.954;11.060;2023-12-20T09:44:29;4.50;;;1.40;;
78750;SDS011;68070;50.954;11.060;2023-12-20T09:46:56;5.60;;;1.70;;
78750;SDS011;68070;50.954;11.060;2023-12-20T09:49:22;3.90;;;1.60;;
78750;SDS011;68070;50.954;11.060;2023-12-20T09:51:50;3.30;;;1.60;;
78750;SDS011;68070;50.954;11.060;2023-12-20T09:54:17;5.10;;;1.60;;
78750;SDS011;68070;50.954;11.060;2023-12-20T09:56:43;3.70;;;1.80;;
78750;SDS011;68070;50.954;11.060;2023-12-20T09:59:09;4.70;;;1.90;;
78750;SDS011;68070;50.954;11.060;2023-12-20T10:01:35;5.40;;;2.00;;
78750;SDS011;68070;50.954;11.060;2023-12-20T10:04:02;5.90;;;1.70;;
78750;SDS011;68070;50.954;11.060;2023-12-20T10:06:34;5.30;;;2.20;;
78750;SDS011;68070;50.954;11.060;2023-12-20T10:09:02;8.30;;;2.10;;
78750;SDS011;68070;50.954;11.060;2023-12-20T10:11:29;6.50;;;2.00;;
78750;SDS011;68070;50.954;11.060;2023-12-20T10:14:00;4.70;;;2.30;;
78750;SDS011;68070;50.954;11.060;2023-12-20T10:16:26;4.80;;;2.20;;
78750;SDS011;68070;50.954;11.060;2023-12-20T10:18:55;3.00;;;1.50;;
78750;SDS011;68070;50.954;11.060;2023-12-20T10:21:21;2.50;;;1.50;;
78750;SDS011;68070;50.954;11.060;2023-12-20T10:23:48;3.40;;;1.60;;
78750;SDS011;68070;50.954;11.060;2023-12-20T10:26:21;5.60;;;1.70;;
78750;SDS011;68070;50.954;11.060;2023-12-20T10:28:54;6.30;;;2.00;;
78750;SDS011;68070;50.954;11.060;2023-12-20T10:31:27;6.70;;;1.90;;
78750;SDS011;68070;50.954;11.060;2023-12-20T10:33:53;3.80;;;1.70;;
78750;SDS011;68070;50.954;11.060;2023-12-20T10:36:18;5.50;;;1.80;;
78750;SDS011;68070;50.954;11.060;2023-12-20T10:38:43;4.90;;;1.70;;
78750;SDS011;68070;50.954;11.060;2023-12-20T10:41:09;4.70;;;1.70;;
78750;SDS011;68070;50.954;11.060;2023-12-20T10:43:35;5.80;;;1.50;;
78750;SDS011;68070;50.954;11.060;2023-12-20T10:46:02;6.20;;;1.60;;
78750;SDS011;68070;50.954;11.060;2023-12-20T10:48:28;5.80;;;2.10;;
78750;SDS011;68070;50.954;11.060;2023-12-20T10:50:56;5.00;;;1.80;;
78750;SDS011;68070;50.954;11.060;2023-12-20T10:53:23;4.60;;;1.80;;
78750;SDS011;68070;50.954;11.060;2023-12-20T10:55:50;3.70;;;1.80;;
78750;SDS011;68070;50.954;11.060;2023-12-20T10:58:20;6.50;;;1.40;;
78750;SDS011;68070;50.954;11.060;2023-12-20T11:00:47;5.00;;;1.40;;
78750;SDS011;68070;50.954;11.060;2023-12-20T11:03:17;4.20;;;1.80;;
78750;SDS011;68070;50.954;11.060;2023-12-20T11:05:54;3.80;;;1.80;;
78750;SDS011;68070;50.954;11.060;2023-12-20T11:08:29;4.30;;;1.80;;
78750;SDS011;68070;50.954;11.060;2023-12-20T11:11:42;3.00;;;1.40;;
78750;SDS011;68070;50.954;11.060;2023-12-20T11:14:02;4.70;;;1.70;;
78750;SDS011;68070;50.954;11.060;2023-12-20T11:16:33;6.20;;;1.90;;
78750;SDS011;68070;50.954;11.060;2023-12-20T11:19:04;4.90;;;1.90;;
78750;SDS011;68070;50.954;11.060;2023-12-20T11:21:30;4.40;;;1.90;;
78750;SDS011;68070;50.954;11.060;2023-12-20T11:23:55;4.20;;;1.70;;
78750;SDS011;68070;50.954;11.060;2023-12-20T11:26:27;3.30;;;1.60;;
78750;SDS011;68070;50.954;11.060;2023-12-20T11:28:53;3.40;;;1.60;;
78750;SDS011;68070;50.954;11.060;2023-12-20T11:31:19;5.30;;;2.20;;
78750;SDS011;68070;50.954;11.060;2023-12-20T11:33:44;6.40;;;1.60;;
78750;SDS011;68070;50.954;11.060;2023-12-20T11:36:14;3.40;;;1.70;;
78750;SDS011;68070;50.954;11.060;2023-12-20T11:38:55;4.90;;;1.70;;
78750;SDS011;68070;50.954;11.060;2023-12-20T11:41:23;5.20;;;1.50;;
78750;SDS011;68070;50.954;11.060;2023-12-20T11:43:55;3.90;;;2.00;;
78750;SDS011;68070;50.954;11.060;2023-12-20T11:46:21;3.50;;;2.20;;
78750;SDS011;68070;50.954;11.060;2023-12-20T11:48:47;4.30;;;1.90;;
78750;SDS011;68070;50.954;11.060;2023-12-20T11:51:13;5.90;;;1.90;;
78750;SDS011;68070;50.954;11.060;2023-12-20T11:53:42;5.00;;;2.10;;
78750;SDS011;68070;50.954;11.060;2023-12-20T11:56:07;11.40;;;2.00;;
78750;SDS011;68070;50.954;11.060;2023-12-20T11:58:34;4.10;;;1.80;;
78750;SDS011;68070;50.954;11.060;2023-12-20T12:01:00;4.40;;;1.60;;
78750;SDS011;68070;50.954;11.060;2023-12-20T12:03:27;3.50;;;1.80;;
78750;SDS011;68070;50.954;11.060;2023-12-20T12:05:53;4.20;;;1.70;;
78750;SDS011;68070;50.954;11.060;2023-12-20T12:08:18;4.60;;;1.60;;
78750;SDS011;68070;50.954;11.060;2023-12-20T12:10:44;2.70;;;1.70;;
78750;SDS011;68070;50.954;11.060;2023-12-20T12:13:09;3.60;;;2.00;;
78750;SDS011;68070;50.954;11.060;2023-12-20T12:15:36;5.00;;;1.70;;
78750;SDS011;68070;50.954;11.060;2023-12-20T12:18:02;3.30;;;1.60;;
78750;SDS011;68070;50.954;11.060;2023-12-20T12:20:27;4.90;;;1.90;;
78750;SDS011;68070;50.954;11.060;2023-12-20T12:23:03;4.50;;;1.70;;
78750;SDS011;68070;50.954;11.060;2023-12-20T12:25:30;6.10;;;3.00;;
78750;SDS011;68070;50.954;11.060;2023-12-20T12:27:56;8.20;;;3.60;;
78750;SDS011;68070;50.954;11.060;2023-12-20T12:30:23;5.10;;;2.80;;
78750;SDS011;68070;50.954;11.060;2023-12-20T12:32:50;5.70;;;2.70;;
78750;SDS011;68070;50.954;11.060;2023-12-20T12:35:16;5.60;;;4.40;;
78750;SDS011;68070;50.954;11.060;2023-12-20T12:37:41;3.70;;;1.80;;
78750;SDS011;68070;50.954;11.060;2023-12-20T12:40:09;3.20;;;1.80;;
78750;SDS011;68070;50.954;11.060;2023-12-20T12:42:36;2.50;;;1.70;;
78750;SDS011;68070;50.954;11.060;2023-12-20T12:45:02;4.20;;;1.70;;
78750;SDS011;68070;50.954;11.060;2023-12-20T12:47:28;5.50;;;1.90;;
78750;SDS011;68070;50.954;11.060;2023-12-20T12:49:53;2.60;;;1.70;;
78750;SDS011;68070;50.954;11.060;2023-12-20T12:52:19;3.30;;;1.70;;
78750;SDS011;68070;50.954;11.060;2023-12-20T12:54:45;5.70;;;2.00;;
78750;SDS011;68070;50.954;11.060;2023-12-20T12:57:10;3.10;;;2.10;;
78750;SDS011;68070;50.954;11.060;2023-12-20T12:59:36;2.50;;;1.80;;
78750;SDS011;68070;50.954;11.060;2023-12-20T13:02:02;5.90;;;1.70;;
78750;SDS011;68070;50.954;11.060;2023-12-20T13:04:27;2.50;;;1.60;;
78750;SDS011;68070;50.954;11.060;2023-12-20T13:09:18;5.20;;;1.70;;
78750;SDS011;68070;50.954;11.060;2023-12-20T13:11:44;4.50;;;1.60;;
78750;SDS011;68070;50.954;11.060;2023-12-20T13:14:10;4.00;;;1.60;;
78750;SDS011;68070;50.954;11.060;2023-12-20T13:16:40;3.00;;;1.90;;
78750;SDS011;68070;50.954;11.060;2023-12-20T13:19:06;4.30;;;1.80;;
78750;SDS011;68070;50.954;11.060;2023-12-20T13:21:32;4.70;;;1.70;;
78750;SDS011;68070;50.954;11.060;2023-12-20T13:23:57;3.60;;;1.60;;
78750;SDS011;68070;50.954;11.060;2023-12-20T13:26:22;3.90;;;1.70;;
78750;SDS011;68070;50.954;11.060;2023-12-20T13:28:48;4.20;;;1.70;;
78750;SDS011;68070;50.954;11.060;2023-12-20T13:33:38;4.90;;;1.70;;
78750;SDS011;68070;50.954;11.060;2023-12-20T13:36:04;4.80;;;1.50;;
78750;SDS011;68070;50.954;11.060;2023-12-20T13:38:30;3.30;;;1.60;;
78750;SDS011;68070;50.954;11.060;2023-12-20T13:40:55;3.70;;;1.80;;
78750;SDS011;68070;50.954;11.060;2023-12-20T13:43:23;2.30;;;1.30;;
78750;SDS011;68070;50.954;11.060;2023-12-20T13:45:49;2.80;;;1.40;;
78750;SDS011;68070;50.954;11.060;2023-12-20T13:48:15;3.90;;;1.20;;
78750;SDS011;68070;50.954;11.060;2023-12-20T13:50:40;5.30;;;2.00;;
78750;SDS011;68070;50.954;11.060;2023-12-20T13:53:06;3.20;;;1.40;;
78750;SDS011;68070;50.954;11.060;2023-12-20T13:57:56;3.30;;;1.70;;
78750;SDS011;68070;50.954;11.060;2023-12-20T14:00:22;5.10;;;2.00;;
78750;SDS011;68070;50.954;11.060;2023-12-20T14:02:48;5.10;;;1.60;;
78750;SDS011;68070;50.954;11.060;2023-12-20T14:05:14;2.60;;;1.40;;
78750;SDS011;68070;50.954;11.060;2023-12-20T14:07:42;1.90;;;1.20;;
78750;SDS011;68070;50.954;11.060;2023-12-20T14:10:10;4.20;;;1.50;;
78750;SDS011;68070;50.954;11.060;2023-12-20T14:12:36;3.00;;;2.00;;
78750;SDS011;68070;50.954;11.060;2023-12-20T14:15:03;3.90;;;1.70;;
78750;SDS011;68070;50.954;11.060;2023-12-20T14:17:29;2.40;;;1.60;;
78750;SDS011;68070;50.954;11.060;2023-12-20T14:19:54;3.80;;;2.00;;
78750;SDS011;68070;50.954;11.060;2023-12-20T14:24:45;5.50;;;1.90;;
78750;SDS011;68070;50.954;11.060;2023-12-20T14:27:10;1.90;;;1.30;;
78750;SDS011;68070;50.954;11.060;2023-12-20T14:29:36;3.20;;;1.20;;
78750;SDS011;68070;50.954;11.060;2023-12-20T14:32:02;2.40;;;1.40;;
78750;SDS011;68070;50.954;11.060;2023-12-20T14:34:29;3.60;;;1.50;;
78750;SDS011;68070;50.954;11.060;2023-12-20T14:36:54;3.70;;;1.50;;
78750;SDS011;68070;50.954;11.060;2023-12-20T14:39:20;2.30;;;1.40;;
78750;SDS011;68070;50.954;11.060;2023-12-20T14:41:46;2.70;;;1.80;;
78750;SDS011;68070;50.954;11.060;2023-12-20T14:46:36;6.20;;;1.50;;
78750;SDS011;68070;50.954;11.060;2023-12-20T14:49:03;3.50;;;1.50;;
78750;SDS011;68070;50.954;11.060;2023-12-20T14:51:29;3.20;;;1.80;;
78750;SDS011;68070;50.954;11.060;2023-12-20T14:56:20;5.20;;;2.20;;
78750;SDS011;68070;50.954;11.060;2023-12-20T14:58:45;3.60;;;2.20;;
78750;SDS011;68070;50.954;11.060;2023-12-20T15:01:12;3.90;;;1.80;;
78750;SDS011;68070;50.954;11.060;2023-12-20T15:06:04;5.70;;;2.50;;
78750;SDS011;68070;50.954;11.060;2023-12-20T15:08:30;4.80;;;1.90;;
78750;SDS011;68070;50.954;11.060;2023-12-20T15:10:55;5.90;;;2.20;;
78750;SDS011;68070;50.954;11.060;2023-12-20T15:13:21;7.10;;;1.80;;
78750;SDS011;68070;50.954;11.060;2023-12-20T15:18:12;6.30;;;2.50;;
78750;SDS011;68070;50.954;11.060;2023-12-20T15:20:38;2.40;;;1.60;;
78750;SDS011;68070;50.954;11.060;2023-12-20T15:25:33;3.90;;;1.90;;
78750;SDS011;68070;50.954;11.060;2023-12-20T15:27:58;4.20;;;1.60;;
78750;SDS011;68070;50.954;11.060;2023-12-20T15:32:53;6.80;;;2.40;;
78750;SDS011;68070;50.954;11.060;2023-12-20T15:35:18;2.80;;;1.50;;
78750;SDS011;68070;50.954;11.060;2023-12-20T15:40:08;2.60;;;1.40;;
78750;SDS011;68070;50.954;11.060;2023-12-20T15:42:35;2.90;;;0.90;;
78750;SDS011;68070;50.954;11.060;2023-12-20T15:45:02;4.30;;;1.40;;
78750;SDS011;68070;50.954;11.060;2023-12-20T15:47:28;5.50;;;2.00;;
78750;SDS011;68070;50.954;11.060;2023-12-20T15:52:18;4.70;;;2.00;;
78750;SDS011;68070;50.954;11.060;2023-12-20T15:54:43;4.60;;;1.90;;
78750;SDS011;68070;50.954;11.060;2023-12-20T15:57:09;3.50;;;1.40;;
78750;SDS011;68070;50.954;11.060;2023-12-20T15:59:35;3.30;;;1.20;;
78750;SDS011;68070;50.954;11.060;2023-12-20T16:02:01;4.90;;;2.00;;
78750;SDS011;68070;50.954;11.060;2023-12-20T16:04:27;1.90;;;1.30;;
78750;SDS011;68070;50.954;11.060;2023-12-20T16:06:53;5.00;;;1.60;;
78750;SDS011;68070;50.954;11.060;2023-12-20T16:09:18;5.00;;;1.70;;
78750;SDS011;68070;50.954;11.060;2023-12-20T16:14:09;2.70;;;1.80;;
78750;SDS011;68070;50.954;11.060;2023-12-20T16:16:38;2.90;;;2.00;;
78750;SDS011;68070;50.954;11.060;2023-12-20T16:19:05;4.30;;;1.40;;
78750;SDS011;68070;50.954;11.060;2023-12-20T16:23:55;1.70;;;1.20;;
78750;SDS011;68070;50.954;11.060;2023-12-20T16:28:46;4.60;;;2.40;;
78750;SDS011;68070;50.954;11.060;2023-12-20T16:31:11;3.40;;;1.60;;
78750;SDS011;68070;50.954;11.060;2023-12-20T16:33:36;4.10;;;1.60;;
78750;SDS011;68070;50.954;11.060;2023-12-20T16:38:27;3.90;;;1.50;;
78750;SDS011;68070;50.954;11.060;2023-12-20T16:40:52;3.90;;;1.40;;
78750;SDS011;68070;50.954;11.060;2023-12-20T16:43:17;8.60;;;4.00;;
78750;SDS011;68070;50.954;11.060;2023-12-20T16:45:43;2.30;;;1.70;;
78750;SDS011;68070;50.954;11.060;2023-12-20T16:48:08;3.40;;;1.60;;
78750;SDS011;68070;50.954;11.060;2023-12-20T16:52:59;2.90;;;1.40;;
78750;SDS011;68070;50.954;11.060;2023-12-20T16:55:24;2.20;;;1.40;;
78750;SDS011;68070;50.954;11.060;2023-12-20T16:57:51;3.00;;;1.70;;
78750;SDS011;68070;50.954;11.060;2023-12-20T17:00:16;4.50;;;1.90;;
78750;SDS011;68070;50.954;11.060;2023-12-20T17:02:42;2.80;;;1.70;;